createdAt,value
2023-08-23T00:01:27.796Z,18.76
2023-08-23T00:04:00.926Z,18.74
2023-08-23T00:06:33.479Z,18.73
2023-08-23T00:09:06.582Z,18.70
2023-08-23T00:11:39.396Z,18.66
2023-08-23T00:14:12.318Z,18.63
2023-08-23T00:16:44.736Z,18.62
2023-08-23T00:19:17.594Z,18.60
2023-08-23T00:21:50.229Z,18.59
2023-08-23T00:24:23.021Z,18.58
2023-08-23T00:26:58.254Z,18.57
2023-08-23T00:29:30.999Z,18.56
2023-08-23T00:32:03.810Z,18.54
2023-08-23T00:34:36.895Z,18.50
2023-08-23T00:37:09.538Z,18.47
2023-08-23T00:39:42.721Z,18.47
2023-08-23T00:42:15.512Z,18.45
2023-08-23T00:44:48.545Z,18.43
2023-08-23T00:47:21.252Z,18.41
2023-08-23T00:49:54.755Z,18.38
2023-08-23T00:52:33.558Z,18.37
2023-08-23T00:55:11.009Z,18.35
2023-08-23T00:57:43.429Z,18.33
2023-08-23T01:00:20.251Z,18.32
2023-08-23T01:02:53.674Z,18.31
2023-08-23T01:05:31.073Z,18.24
2023-08-23T01:08:11.827Z,18.20
2023-08-23T01:10:49.187Z,18.19
2023-08-23T01:13:29.738Z,18.20
2023-08-23T01:16:02.903Z,18.18
2023-08-23T01:18:35.503Z,18.17
2023-08-23T01:21:12.019Z,18.16
2023-08-23T01:23:46.163Z,18.14
2023-08-23T01:26:18.546Z,18.14
2023-08-23T01:28:52.673Z,18.13
2023-08-23T01:31:28.020Z,18.13
2023-08-23T01:34:10.608Z,18.12
2023-08-23T01:36:45.263Z,18.09
2023-08-23T01:39:18.452Z,18.08
2023-08-23T01:41:51.725Z,18.03
2023-08-23T01:44:24.740Z,18.01
2023-08-23T01:46:57.832Z,17.99
2023-08-23T01:49:30.285Z,18.00
2023-08-23T01:52:02.790Z,18.01
2023-08-23T01:54:35.310Z,18.02
2023-08-23T01:57:08.374Z,17.99
2023-08-23T01:59:41.527Z,17.94
2023-08-23T02:02:14.280Z,17.90
2023-08-23T02:04:47.201Z,17.90
2023-08-23T02:07:20.918Z,17.89
2023-08-23T02:09:53.346Z,17.87
2023-08-23T02:12:26.016Z,17.86
2023-08-23T02:14:58.432Z,17.84
2023-08-23T02:17:32.286Z,17.83
2023-08-23T02:20:04.966Z,17.80
2023-08-23T02:22:37.377Z,17.78
2023-08-23T02:25:12.014Z,17.76
2023-08-23T02:27:43.193Z,17.75
2023-08-23T02:30:16.943Z,17.74
2023-08-23T02:32:49.367Z,17.72
2023-08-23T02:35:21.813Z,17.71
2023-08-23T02:37:54.834Z,17.69
2023-08-23T02:40:28.278Z,17.66
2023-08-23T02:43:00.965Z,17.63
2023-08-23T02:45:33.677Z,17.62
2023-08-23T02:48:06.700Z,17.62
2023-08-23T02:50:39.209Z,17.62
2023-08-23T02:53:11.973Z,17.60
2023-08-23T02:55:44.398Z,17.58
2023-08-23T02:58:16.843Z,17.57
2023-08-23T03:00:49.280Z,17.57
2023-08-23T03:03:22.454Z,17.53
2023-08-23T03:05:57.469Z,17.50
2023-08-23T03:08:30.357Z,17.48
2023-08-23T03:11:06.801Z,17.44
2023-08-23T03:13:39.218Z,17.45
2023-08-23T03:16:11.996Z,17.45
2023-08-23T03:18:44.945Z,17.44
2023-08-23T03:21:17.545Z,17.45
2023-08-23T03:23:50.484Z,17.47
2023-08-23T03:26:22.993Z,17.49
2023-08-23T03:28:56.219Z,17.46
2023-08-23T03:31:29.400Z,17.46
2023-08-23T03:34:02.518Z,17.46
2023-08-23T03:36:36.409Z,17.44
2023-08-23T03:39:09.206Z,17.45
2023-08-23T03:41:41.496Z,17.46
2023-08-23T03:44:13.903Z,17.46
2023-08-23T03:46:46.986Z,17.44
2023-08-23T03:49:20.973Z,17.42
2023-08-23T03:51:53.362Z,17.40
2023-08-23T03:54:26.739Z,17.36
2023-08-23T03:56:59.797Z,17.33
2023-08-23T03:59:32.996Z,17.33
2023-08-23T04:02:06.388Z,17.34
2023-08-23T04:04:39.276Z,17.35
2023-08-23T04:07:14.420Z,17.35
2023-08-23T04:09:46.870Z,17.37
2023-08-23T04:12:19.502Z,17.34
2023-08-23T04:14:52.031Z,17.32
2023-08-23T04:17:25.343Z,17.33
2023-08-23T04:19:58.277Z,17.34
2023-08-23T04:22:32.106Z,17.38
2023-08-23T04:25:05.475Z,17.34
2023-08-23T04:27:38.217Z,17.32
2023-08-23T04:30:14.532Z,17.32
2023-08-23T04:32:47.526Z,17.31
2023-08-23T04:35:21.977Z,17.29
2023-08-23T04:37:55.206Z,17.30
2023-08-23T04:40:29.379Z,17.30
2023-08-23T04:43:01.930Z,17.33
2023-08-23T04:45:38.246Z,17.35
2023-08-23T04:48:13.311Z,17.38
2023-08-23T04:50:51.838Z,17.39
2023-08-23T04:53:24.913Z,17.43
2023-08-23T04:56:00.514Z,17.48
2023-08-23T04:58:32.913Z,17.53
2023-08-23T05:01:07.061Z,17.58
2023-08-23T05:03:42.945Z,17.60
2023-08-23T05:06:15.651Z,17.61
2023-08-23T05:08:48.387Z,17.65
2023-08-23T05:11:24.944Z,17.70
2023-08-23T05:13:57.958Z,17.78
2023-08-23T05:16:30.435Z,17.86
2023-08-23T05:19:03.607Z,17.93
2023-08-23T05:21:36.602Z,18.02
2023-08-23T05:24:09.400Z,18.11
2023-08-23T05:26:42.223Z,18.21
2023-08-23T05:29:15.562Z,18.31
2023-08-23T05:31:48.146Z,18.39
2023-08-23T05:34:20.659Z,18.50
2023-08-23T05:36:53.555Z,18.65
2023-08-23T05:39:26.018Z,18.79
2023-08-23T05:41:58.304Z,18.94
2023-08-23T05:44:30.696Z,19.09
2023-08-23T05:47:03.781Z,19.24
2023-08-23T05:49:36.233Z,19.39
2023-08-23T05:52:09.229Z,19.53
2023-08-23T05:54:42.830Z,19.63
2023-08-23T05:57:15.584Z,19.74
2023-08-23T05:59:48.562Z,19.88
2023-08-23T06:02:21.235Z,20.01
2023-08-23T06:04:54.519Z,20.11
2023-08-23T06:07:27.088Z,20.26
2023-08-23T06:09:59.913Z,20.41
2023-08-23T06:12:32.291Z,20.48
2023-08-23T06:15:05.576Z,20.53
2023-08-23T06:17:38.070Z,20.60
2023-08-23T06:20:13.282Z,20.70
2023-08-23T06:22:46.076Z,20.85
2023-08-23T06:25:18.635Z,20.97
2023-08-23T06:27:51.586Z,21.09
2023-08-23T06:30:24.977Z,21.23
2023-08-23T06:32:58.206Z,21.36
2023-08-23T06:35:31.055Z,21.48
2023-08-23T06:38:03.789Z,21.60
2023-08-23T06:40:36.383Z,21.75
2023-08-23T06:43:09.307Z,21.90
2023-08-23T06:45:41.673Z,22.05
2023-08-23T06:48:14.723Z,22.20
2023-08-23T06:50:48.083Z,22.36
2023-08-23T06:53:20.562Z,22.55
2023-08-23T06:55:53.045Z,22.68
2023-08-23T06:58:25.428Z,22.80
2023-08-23T07:01:00.360Z,22.90
2023-08-23T07:03:33.137Z,23.04
2023-08-23T07:06:07.051Z,23.15
2023-08-23T07:08:39.688Z,23.31
2023-08-23T07:11:12.811Z,23.48
2023-08-23T07:13:45.214Z,23.63
2023-08-23T07:16:18.058Z,23.77
2023-08-23T07:18:50.868Z,23.89
2023-08-23T07:21:23.958Z,23.98
2023-08-23T07:23:56.372Z,24.09
2023-08-23T07:26:29.010Z,24.20
2023-08-23T07:29:01.732Z,24.30
2023-08-23T07:31:34.629Z,24.42
2023-08-23T07:34:07.695Z,24.56
2023-08-23T07:36:40.161Z,24.71
2023-08-23T07:39:12.826Z,24.80
2023-08-23T07:41:45.524Z,24.92
2023-08-23T07:44:18.283Z,25.05
2023-08-23T07:46:50.664Z,25.20
2023-08-23T07:49:24.040Z,25.33
2023-08-23T07:51:56.534Z,25.47
2023-08-23T07:54:29.309Z,25.56
2023-08-23T07:57:02.077Z,25.66
2023-08-23T07:59:34.794Z,25.73
2023-08-23T08:02:08.452Z,25.75
2023-08-23T08:04:40.939Z,25.79
2023-08-23T08:07:21.033Z,25.93
2023-08-23T08:10:05.275Z,26.06
2023-08-23T08:12:38.058Z,26.17
2023-08-23T08:15:11.851Z,26.28
2023-08-23T08:17:45.242Z,26.38
2023-08-23T08:20:18.520Z,26.42
2023-08-23T08:22:51.758Z,26.52
2023-08-23T08:25:24.495Z,26.62
2023-08-23T08:27:57.304Z,26.70
2023-08-23T08:30:29.754Z,26.76
2023-08-23T08:33:02.920Z,26.79
2023-08-23T08:35:35.363Z,26.78
2023-08-23T08:38:08.035Z,26.83
2023-08-23T08:40:41.219Z,26.93
2023-08-23T08:43:14.131Z,27.02
2023-08-23T08:45:47.003Z,27.10
2023-08-23T08:48:19.707Z,27.24
2023-08-23T08:50:52.962Z,27.26
2023-08-23T08:53:27.795Z,27.29
2023-08-23T08:56:00.730Z,27.40
2023-08-23T08:58:35.675Z,27.52
2023-08-23T09:01:08.506Z,27.55
2023-08-23T09:03:42.159Z,27.60
2023-08-23T09:06:15.122Z,27.71
2023-08-23T09:08:48.546Z,27.78
2023-08-23T09:11:22.693Z,27.85
2023-08-23T09:13:56.477Z,27.91
2023-08-23T09:16:29.092Z,27.95
2023-08-23T09:19:02.329Z,28.04
2023-08-23T09:21:35.942Z,28.12
2023-08-23T09:24:08.615Z,28.26
2023-08-23T09:26:41.407Z,28.37
2023-08-23T09:29:14.365Z,28.40
2023-08-23T09:31:46.907Z,28.37
2023-08-23T09:34:20.052Z,28.25
2023-08-23T09:36:53.227Z,28.12
2023-08-23T09:39:27.202Z,28.16
2023-08-23T09:42:04.528Z,28.31
2023-08-23T09:44:41.976Z,28.38
2023-08-23T09:47:17.574Z,28.45
2023-08-23T09:49:52.629Z,28.57
2023-08-23T09:52:31.248Z,28.71
2023-08-23T09:55:15.000Z,28.79
2023-08-23T09:57:49.588Z,28.83
2023-08-23T10:00:20.900Z,28.81
2023-08-23T10:02:54.324Z,28.60
2023-08-23T10:05:29.193Z,28.46
2023-08-23T10:08:03.727Z,28.45
2023-08-23T10:10:36.746Z,28.38
2023-08-23T10:13:09.702Z,28.39
2023-08-23T10:15:43.829Z,28.47
2023-08-23T10:18:15.998Z,28.60
2023-08-23T10:20:48.619Z,28.68
2023-08-23T10:23:21.355Z,28.68
2023-08-23T10:25:53.735Z,28.64
2023-08-23T10:28:26.147Z,28.55
2023-08-23T10:31:15.261Z,28.56
2023-08-23T10:33:58.029Z,28.72
2023-08-23T10:36:32.444Z,28.83
2023-08-23T10:39:07.049Z,28.79
2023-08-23T10:41:41.072Z,28.74
2023-08-23T10:44:17.868Z,28.74
2023-08-23T10:46:53.111Z,28.81
2023-08-23T10:49:27.022Z,28.93
2023-08-23T10:51:59.740Z,29.06
2023-08-23T10:54:33.951Z,29.14
2023-08-23T10:57:05.104Z,29.29
2023-08-23T10:59:37.441Z,29.29
2023-08-23T11:02:10.742Z,29.24
2023-08-23T11:04:43.984Z,29.27
2023-08-23T11:07:16.861Z,29.30
2023-08-23T11:09:49.323Z,29.37
2023-08-23T11:12:21.822Z,29.48
2023-08-23T11:14:54.480Z,29.63
2023-08-23T11:17:27.340Z,29.70
2023-08-23T11:20:00.413Z,29.77
2023-08-23T11:22:33.199Z,29.85
2023-08-23T11:25:06.198Z,29.78
2023-08-23T11:27:39.256Z,29.63
2023-08-23T11:30:12.691Z,29.52
2023-08-23T11:32:47.279Z,29.57
2023-08-23T11:35:23.749Z,29.72
2023-08-23T11:37:58.621Z,29.86
2023-08-23T11:40:31.169Z,29.99
2023-08-23T11:43:20.288Z,30.10
2023-08-23T11:45:55.294Z,30.18
2023-08-23T11:48:27.826Z,30.26
2023-08-23T11:51:02.456Z,30.38
2023-08-23T11:53:35.240Z,30.51
2023-08-23T11:56:11.066Z,30.62
2023-08-23T11:58:43.639Z,30.59
2023-08-23T12:01:17.055Z,30.46
2023-08-23T12:03:49.575Z,30.47
2023-08-23T12:06:22.913Z,30.44
2023-08-23T12:08:56.838Z,30.34
2023-08-23T12:11:29.955Z,30.31
2023-08-23T12:14:07.323Z,30.31
2023-08-23T12:16:41.122Z,30.25
2023-08-23T12:19:25.811Z,30.25
2023-08-23T12:22:03.681Z,30.36
2023-08-23T12:24:36.370Z,30.43
2023-08-23T12:27:08.740Z,30.53
2023-08-23T12:29:42.664Z,30.63
2023-08-23T12:32:13.591Z,30.69
2023-08-23T12:34:46.166Z,30.76
2023-08-23T12:37:19.358Z,30.86
2023-08-23T12:39:52.151Z,30.87
2023-08-23T12:42:24.931Z,30.88
2023-08-23T12:44:57.698Z,30.83
2023-08-23T12:47:30.298Z,30.80
2023-08-23T12:50:03.713Z,30.80
2023-08-23T12:52:36.155Z,30.78
2023-08-23T12:55:09.999Z,30.75
2023-08-23T12:57:42.425Z,30.71
2023-08-23T13:00:30.427Z,30.61
2023-08-23T13:03:05.683Z,30.47
2023-08-23T13:05:38.086Z,30.43
2023-08-23T13:08:10.902Z,30.40
2023-08-23T13:10:43.802Z,30.36
2023-08-23T13:13:16.449Z,30.36
2023-08-23T13:15:49.030Z,30.34
2023-08-23T13:18:21.704Z,30.29
2023-08-23T13:20:54.401Z,30.22
2023-08-23T13:23:26.852Z,30.15
2023-08-23T13:25:59.537Z,30.11
2023-08-23T13:28:32.077Z,30.04
2023-08-23T13:31:05.992Z,29.97
2023-08-23T13:33:37.919Z,29.94
2023-08-23T13:36:10.500Z,29.82
2023-08-23T13:38:43.151Z,29.67
2023-08-23T13:41:15.630Z,29.61
2023-08-23T13:43:48.723Z,29.59
2023-08-23T13:46:22.096Z,29.53
2023-08-23T13:48:54.559Z,29.33
2023-08-23T13:51:27.214Z,29.11
2023-08-23T13:54:00.529Z,28.96
2023-08-23T13:56:33.643Z,28.84
2023-08-23T13:59:06.414Z,28.74
2023-08-23T14:01:39.297Z,28.64
2023-08-23T14:04:11.673Z,28.60
2023-08-23T14:06:44.120Z,28.55
2023-08-23T14:09:16.847Z,28.50
2023-08-23T14:11:58.080Z,28.45
2023-08-23T14:14:30.845Z,28.43
2023-08-23T14:17:03.214Z,28.40
2023-08-23T14:19:47.043Z,28.36
2023-08-23T14:22:20.268Z,28.31
2023-08-23T14:24:52.873Z,28.28
2023-08-23T14:27:25.242Z,28.23
2023-08-23T14:29:57.994Z,28.23
2023-08-23T14:32:30.522Z,28.25
2023-08-23T14:35:04.826Z,28.24
2023-08-23T14:37:37.592Z,28.21
2023-08-23T14:40:13.855Z,28.17
2023-08-23T14:42:47.506Z,28.11
2023-08-23T14:45:20.136Z,28.11
2023-08-23T14:47:52.964Z,28.14
2023-08-23T14:50:27.124Z,28.12
2023-08-23T14:53:00.066Z,28.05
2023-08-23T14:55:34.220Z,28.01
2023-08-23T14:58:05.121Z,27.97
2023-08-23T15:00:37.898Z,27.90
2023-08-23T15:03:10.446Z,27.80
2023-08-23T15:05:43.027Z,27.75
2023-08-23T15:08:15.422Z,27.74
2023-08-23T15:10:47.739Z,27.72
2023-08-23T15:13:21.251Z,27.71
2023-08-23T15:16:01.082Z,27.70
2023-08-23T15:18:33.922Z,27.66
2023-08-23T15:21:06.442Z,27.66
2023-08-23T15:23:38.928Z,27.66
2023-08-23T15:26:11.473Z,27.64
2023-08-23T15:28:54.972Z,27.64
2023-08-23T15:31:29.538Z,27.67
2023-08-23T15:34:02.240Z,27.70
2023-08-23T15:36:36.028Z,27.71
2023-08-23T15:39:08.410Z,27.72
2023-08-23T15:41:41.136Z,27.74
2023-08-23T15:44:13.987Z,27.77
2023-08-23T15:46:47.141Z,27.80
2023-08-23T15:49:19.682Z,27.86
2023-08-23T15:51:52.911Z,27.87
2023-08-23T15:54:25.458Z,27.87
2023-08-23T15:56:58.139Z,27.87
2023-08-23T15:59:30.545Z,27.85
2023-08-23T16:02:04.336Z,27.81
2023-08-23T16:04:36.804Z,27.77
2023-08-23T16:07:09.680Z,27.75
2023-08-23T16:09:42.117Z,27.72
2023-08-23T16:12:14.721Z,27.70
2023-08-23T16:14:48.286Z,27.66
2023-08-23T16:17:20.707Z,27.59
2023-08-23T16:19:53.369Z,27.48
2023-08-23T16:22:27.057Z,27.38
2023-08-23T16:25:00.160Z,27.29
2023-08-23T16:27:32.625Z,27.19
2023-08-23T16:30:07.894Z,27.10
2023-08-23T16:32:40.298Z,26.98
2023-08-23T16:35:13.660Z,26.88
2023-08-23T16:37:46.332Z,26.80
2023-08-23T16:40:18.795Z,26.73
2023-08-23T16:42:51.250Z,26.64
2023-08-23T16:45:24.230Z,26.55
2023-08-23T16:47:57.046Z,26.49
2023-08-23T16:50:29.455Z,26.44
2023-08-23T16:53:01.978Z,26.40
2023-08-23T16:55:37.145Z,26.37
2023-08-23T16:58:09.758Z,26.35
2023-08-23T17:00:42.222Z,26.32
2023-08-23T17:03:14.688Z,26.26
2023-08-23T17:05:47.904Z,26.22
2023-08-23T17:08:20.397Z,26.18
2023-08-23T17:10:52.891Z,26.14
2023-08-23T17:13:25.368Z,26.09
2023-08-23T17:15:58.000Z,26.02
2023-08-23T17:18:30.703Z,25.98
2023-08-23T17:21:04.017Z,25.94
2023-08-23T17:23:36.555Z,25.91
2023-08-23T17:26:09.048Z,25.87
2023-08-23T17:28:41.429Z,25.82
2023-08-23T17:31:15.381Z,25.77
2023-08-23T17:33:47.834Z,25.75
2023-08-23T17:36:20.281Z,25.73
2023-08-23T17:38:53.174Z,25.70
2023-08-23T17:41:25.446Z,25.65
2023-08-23T17:43:57.918Z,25.61
2023-08-23T17:46:40.261Z,25.57
2023-08-23T17:49:14.307Z,25.52
2023-08-23T17:51:47.450Z,25.46
2023-08-23T17:54:19.819Z,25.43
2023-08-23T17:56:52.425Z,25.37
2023-08-23T17:59:29.441Z,25.33
2023-08-23T18:02:02.013Z,25.29
2023-08-23T18:04:35.792Z,25.26
2023-08-23T18:07:08.408Z,25.22
2023-08-23T18:09:41.200Z,25.18
2023-08-23T18:12:13.681Z,25.15
2023-08-23T18:14:46.149Z,25.10
2023-08-23T18:17:18.471Z,25.04
2023-08-23T18:19:51.104Z,24.99
2023-08-23T18:22:24.076Z,24.97
2023-08-23T18:24:57.177Z,24.94
2023-08-23T18:27:30.343Z,24.89
2023-08-23T18:30:03.034Z,24.87
2023-08-23T18:32:35.851Z,24.86
2023-08-23T18:35:10.091Z,24.85
2023-08-23T18:37:42.911Z,24.83
2023-08-23T18:40:15.676Z,24.81
2023-08-23T18:42:48.605Z,24.81
2023-08-23T18:45:21.990Z,24.80
2023-08-23T18:47:55.324Z,24.78
2023-08-23T18:50:28.122Z,24.73
2023-08-23T18:53:00.630Z,24.70
2023-08-23T18:55:33.461Z,24.67
2023-08-23T18:58:06.195Z,24.63
2023-08-23T19:00:38.682Z,24.57
2023-08-23T19:03:14.600Z,24.54
2023-08-23T19:05:53.530Z,24.47
2023-08-23T19:08:25.995Z,24.39
2023-08-23T19:11:00.353Z,24.32
2023-08-23T19:13:31.179Z,24.26
2023-08-23T19:16:04.150Z,24.20
2023-08-23T19:18:36.936Z,24.15
2023-08-23T19:21:10.219Z,24.10
2023-08-23T19:23:42.696Z,24.03
2023-08-23T19:26:15.030Z,23.98
2023-08-23T19:28:48.074Z,23.95
2023-08-23T19:31:20.490Z,23.90
2023-08-23T19:33:52.985Z,23.87
2023-08-23T19:36:25.788Z,23.83
2023-08-23T19:38:58.904Z,23.80
2023-08-23T19:41:31.308Z,23.77
2023-08-23T19:44:03.741Z,23.74
2023-08-23T19:46:36.319Z,23.74
2023-08-23T19:49:08.878Z,23.73
2023-08-23T19:51:41.681Z,23.70
2023-08-23T19:54:14.085Z,23.66
2023-08-23T19:56:46.546Z,23.64
2023-08-23T19:59:19.496Z,23.63
2023-08-23T20:01:52.287Z,23.59
2023-08-23T20:04:25.301Z,23.55
2023-08-23T20:07:02.177Z,23.53
2023-08-23T20:09:34.579Z,23.50
2023-08-23T20:12:07.582Z,23.46
2023-08-23T20:14:40.353Z,23.44
2023-08-23T20:17:12.771Z,23.41
2023-08-23T20:19:45.225Z,23.38
2023-08-23T20:22:17.972Z,23.36
2023-08-23T20:24:53.016Z,23.30
2023-08-23T20:27:25.726Z,23.25
2023-08-23T20:30:01.069Z,23.24
2023-08-23T20:32:33.852Z,23.22
2023-08-23T20:35:08.031Z,23.18
2023-08-23T20:37:40.513Z,23.19
2023-08-23T20:40:14.905Z,23.18
2023-08-23T20:42:46.145Z,23.17
2023-08-23T20:45:18.955Z,23.13
2023-08-23T20:47:51.847Z,23.10
2023-08-23T20:50:24.999Z,23.09
2023-08-23T20:52:57.775Z,23.09
2023-08-23T20:55:31.033Z,23.06
2023-08-23T20:58:03.709Z,23.02
2023-08-23T21:00:36.140Z,23.00
2023-08-23T21:03:08.998Z,23.01
2023-08-23T21:05:45.920Z,23.05
2023-08-23T21:08:18.714Z,23.07
2023-08-23T21:10:51.406Z,23.07
2023-08-23T21:13:23.805Z,23.06
2023-08-23T21:15:56.961Z,23.06
2023-08-23T21:18:29.743Z,23.05
2023-08-23T21:21:02.284Z,23.05
2023-08-23T21:23:34.755Z,23.04
2023-08-23T21:26:07.988Z,23.04
2023-08-23T21:28:40.617Z,23.03
2023-08-23T21:31:13.372Z,23.01
2023-08-23T21:33:45.800Z,23.02
2023-08-23T21:36:18.263Z,22.99
2023-08-23T21:38:51.182Z,22.96
2023-08-23T21:41:23.560Z,22.99
2023-08-23T21:43:56.004Z,22.99
2023-08-23T21:46:29.172Z,22.98
2023-08-23T21:49:01.634Z,22.98
2023-08-23T21:51:34.103Z,22.95
2023-08-23T21:54:06.793Z,22.92
2023-08-23T21:56:40.006Z,22.89
2023-08-23T21:59:12.814Z,22.84
2023-08-23T22:01:45.222Z,22.81
2023-08-23T22:04:18.019Z,22.78
2023-08-23T22:06:50.380Z,22.78
2023-08-23T22:09:24.828Z,22.78
2023-08-23T22:11:57.324Z,22.75
2023-08-23T22:14:30.420Z,22.75
2023-08-23T22:17:03.247Z,22.72
2023-08-23T22:19:35.708Z,22.66
2023-08-23T22:22:08.432Z,22.62
2023-08-23T22:24:40.835Z,22.60
2023-08-23T22:27:13.260Z,22.58
2023-08-23T22:29:45.977Z,22.55
2023-08-23T22:32:18.468Z,22.52
2023-08-23T22:34:50.871Z,22.48
2023-08-23T22:37:23.724Z,22.45
2023-08-23T22:39:56.140Z,22.41
2023-08-23T22:42:29.048Z,22.39
2023-08-23T22:45:01.575Z,22.37
2023-08-23T22:47:34.511Z,22.33
2023-08-23T22:50:08.246Z,22.29
2023-08-23T22:52:40.740Z,22.26
2023-08-23T22:55:13.405Z,22.24
2023-08-23T22:57:46.153Z,22.23
2023-08-23T23:00:18.829Z,22.24
2023-08-23T23:02:51.407Z,22.24
2023-08-23T23:05:24.433Z,22.23
2023-08-23T23:07:57.533Z,22.22
2023-08-23T23:10:29.919Z,22.21
2023-08-23T23:13:03.962Z,22.21
2023-08-23T23:15:37.015Z,22.19
2023-08-23T23:18:09.814Z,22.17
2023-08-23T23:20:42.981Z,22.13
2023-08-23T23:23:15.847Z,22.10
2023-08-23T23:25:48.229Z,22.10
2023-08-23T23:28:20.672Z,22.09
2023-08-23T23:30:53.092Z,22.09
2023-08-23T23:33:27.110Z,22.07
2023-08-23T23:35:59.459Z,22.06
2023-08-23T23:38:31.816Z,22.07
2023-08-23T23:41:05.453Z,22.09
2023-08-23T23:43:38.225Z,22.07
2023-08-23T23:46:10.953Z,22.04
2023-08-23T23:48:43.336Z,22.04
2023-08-23T23:51:15.915Z,22.05
2023-08-23T23:53:48.943Z,22.03
2023-08-23T23:56:21.381Z,22.02
2023-08-23T23:58:53.847Z,22.04
